sensor_id;sensor_type;location;lat;lon;timestamp;pressure;altitude;pressure_sealevel;temperature;humidity
20160;BME280;50187;50.492;12.134;2023-11-21T00:00:32;96883.16;;;19.74;40.07
20160;BME280;50187;50.492;12.134;2023-11-21T00:03:17;96883.03;;;19.76;39.98
20160;BME280;50187;50.492;12.134;2023-11-21T00:06:05;96881.78;;;19.78;39.89
20160;BME280;50187;50.492;12.134;2023-11-21T00:08:54;96892.59;;;19.78;39.62
20160;BME280;50187;50.492;12.134;2023-11-21T00:11:39;96888.22;;;19.77;39.73
20160;BME280;50187;50.492;12.134;2023-11-21T00:14:24;96884.03;;;19.74;39.94
20160;BME280;50187;50.492;12.134;2023-11-21T00:17:10;96892.47;;;19.71;39.81
20160;BME280;50187;50.492;12.134;2023-11-21T00:19:55;96889.59;;;19.73;39.81
20160;BME280;50187;50.492;12.134;2023-11-21T00:22:40;96885.88;;;19.74;39.99
20160;BME280;50187;50.492;12.134;2023-11-21T00:25:25;96889.25;;;19.76;39.72
20160;BME280;50187;50.492;12.134;2023-11-21T00:28:11;96880.81;;;19.79;39.84
20160;BME280;50187;50.492;12.134;2023-11-21T00:30:56;96880.81;;;19.79;39.54
20160;BME280;50187;50.492;12.134;2023-11-21T00:33:41;96891.94;;;19.76;39.65
20160;BME280;50187;50.492;12.134;2023-11-21T00:36:27;96902.91;;;19.74;39.85
20160;BME280;50187;50.492;12.134;2023-11-21T00:39:12;96884.69;;;19.77;39.69
20160;BME280;50187;50.492;12.134;2023-11-21T00:41:58;96896.34;;;19.77;39.74
20160;BME280;50187;50.492;12.134;2023-11-21T00:44:43;96900.53;;;19.80;39.60
20160;BME280;50187;50.492;12.134;2023-11-21T00:47:29;96908.63;;;19.80;39.86
20160;BME280;50187;50.492;12.134;2023-11-21T00:50:14;96894.81;;;19.74;39.79
20160;BME280;50187;50.492;12.134;2023-11-21T00:53:00;96902.06;;;19.74;39.67
20160;BME280;50187;50.492;12.134;2023-11-21T00:55:46;96902.06;;;19.74;39.69
20160;BME280;50187;50.492;12.134;2023-11-21T00:58:31;96901.22;;;19.73;39.97
20160;BME280;50187;50.492;12.134;2023-11-21T01:01:16;96905.44;;;19.76;39.68
20160;BME280;50187;50.492;12.134;2023-11-21T01:04:02;96917.06;;;19.77;39.79
20160;BME280;50187;50.492;12.134;2023-11-21T01:06:47;96916.22;;;19.76;39.90
20160;BME280;50187;50.492;12.134;2023-11-21T01:09:33;96916.75;;;19.71;39.95
20160;BME280;50187;50.492;12.134;2023-11-21T01:12:18;96914.72;;;19.73;39.99
20160;BME280;50187;50.492;12.134;2023-11-21T01:15:05;96916.22;;;19.76;39.96
20160;BME280;50187;50.492;12.134;2023-11-21T01:17:54;96916.22;;;19.76;39.58
20160;BME280;50187;50.492;12.134;2023-11-21T01:20:39;96910.84;;;19.76;39.95
20160;BME280;50187;50.492;12.134;2023-11-21T01:23:25;96923.63;;;19.74;40.00
20160;BME280;50187;50.492;12.134;2023-11-21T01:26:10;96921.13;;;19.72;39.68
20160;BME280;50187;50.492;12.134;2023-11-21T01:28:55;96948.78;;;19.74;39.67
20160;BME280;50187;50.492;12.134;2023-11-21T01:31:40;96929.91;;;19.74;39.53
20160;BME280;50187;50.492;12.134;2023-11-21T01:34:26;96932.91;;;19.80;39.69
20160;BME280;50187;50.492;12.134;2023-11-21T01:37:12;96925.84;;;19.79;39.77
20160;BME280;50187;50.492;12.134;2023-11-21T01:39:58;96923.63;;;19.74;39.70
20160;BME280;50187;50.492;12.134;2023-11-21T01:42:44;96924.50;;;19.74;39.77
20160;BME280;50187;50.492;12.134;2023-11-21T01:45:30;96923.50;;;19.76;39.71
20160;BME280;50187;50.492;12.134;2023-11-21T01:48:18;96927.84;;;19.77;39.84
20160;BME280;50187;50.492;12.134;2023-11-21T01:51:06;96921.31;;;19.79;39.90
20160;BME280;50187;50.492;12.134;2023-11-21T01:53:51;96921.31;;;19.79;39.80
20160;BME280;50187;50.492;12.134;2023-11-21T01:56:36;96910.50;;;19.79;39.56
20160;BME280;50187;50.492;12.134;2023-11-21T01:59:22;96920.78;;;19.76;39.71
20160;BME280;50187;50.492;12.134;2023-11-21T02:02:08;96921.81;;;19.74;39.81
20160;BME280;50187;50.492;12.134;2023-11-21T02:04:55;96912.84;;;19.74;39.93
20160;BME280;50187;50.492;12.134;2023-11-21T02:07:41;96917.59;;;19.72;39.83
20160;BME280;50187;50.492;12.134;2023-11-21T02:10:33;96919.75;;;19.77;39.67
20160;BME280;50187;50.492;12.134;2023-11-21T02:13:18;96920.63;;;19.77;39.58
20160;BME280;50187;50.492;12.134;2023-11-21T02:16:04;96929.03;;;19.74;39.64
20160;BME280;50187;50.492;12.134;2023-11-21T02:18:51;96925.69;;;19.72;39.68
20160;BME280;50187;50.492;12.134;2023-11-21T02:21:37;96919.94;;;19.75;39.82
20160;BME280;50187;50.492;12.134;2023-11-21T02:24:25;96919.94;;;19.75;39.78
20160;BME280;50187;50.492;12.134;2023-11-21T02:27:10;96921.81;;;19.74;39.65
20160;BME280;50187;50.492;12.134;2023-11-21T02:29:55;96925.69;;;19.72;39.63
20160;BME280;50187;50.492;12.134;2023-11-21T02:32:41;96926.50;;;19.72;39.66
20160;BME280;50187;50.492;12.134;2023-11-21T02:35:33;96928.38;;;19.72;39.83
20160;BME280;50187;50.492;12.134;2023-11-21T02:38:21;96945.59;;;19.71;39.86
20160;BME280;50187;50.492;12.134;2023-11-21T02:41:06;96933.25;;;19.77;39.83
20160;BME280;50187;50.492;12.134;2023-11-21T02:43:52;96929.53;;;19.78;39.77
20160;BME280;50187;50.492;12.134;2023-11-21T02:46:37;96923.50;;;19.76;39.77
20160;BME280;50187;50.492;12.134;2023-11-21T02:49:24;96923.81;;;19.72;39.76
20160;BME280;50187;50.492;12.134;2023-11-21T02:52:13;96924.50;;;19.74;39.88
20160;BME280;50187;50.492;12.134;2023-11-21T02:54:59;96928.03;;;19.75;39.79
20160;BME280;50187;50.492;12.134;2023-11-21T02:57:44;96917.22;;;19.75;39.80
20160;BME280;50187;50.492;12.134;2023-11-21T03:00:29;96918.59;;;19.79;39.73
20160;BME280;50187;50.492;12.134;2023-11-21T03:03:14;96924.97;;;19.78;39.45
20160;BME280;50187;50.492;12.134;2023-11-21T03:06:00;96922.63;;;19.75;39.78
20160;BME280;50187;50.492;12.134;2023-11-21T03:08:46;96927.38;;;19.73;39.88
20160;BME280;50187;50.492;12.134;2023-11-21T03:11:31;96931.59;;;19.76;39.69
20160;BME280;50187;50.492;12.134;2023-11-21T03:14:17;96931.59;;;19.76;39.58
20160;BME280;50187;50.492;12.134;2023-11-21T03:17:03;96932.41;;;19.76;39.84
20160;BME280;50187;50.492;12.134;2023-11-21T03:19:50;96931.75;;;19.74;39.66
20160;BME280;50187;50.492;12.134;2023-11-21T03:22:35;96937.50;;;19.71;39.91
20160;BME280;50187;50.492;12.134;2023-11-21T03:25:22;96934.78;;;19.71;39.58
20160;BME280;50187;50.492;12.134;2023-11-21T03:28:09;96940.88;;;19.73;39.87
20160;BME280;50187;50.492;12.134;2023-11-21T03:30:54;96939.00;;;19.73;39.88
20160;BME280;50187;50.492;12.134;2023-11-21T03:33:39;96941.69;;;19.73;39.54
20160;BME280;50187;50.492;12.134;2023-11-21T03:36:24;96939.00;;;19.73;39.80
20160;BME280;50187;50.492;12.134;2023-11-21T03:39:10;96944.75;;;19.70;39.96
20160;BME280;50187;50.492;12.134;2023-11-21T03:41:55;96936.47;;;19.72;39.66
20160;BME280;50187;50.492;12.134;2023-11-21T03:44:41;96941.06;;;19.71;39.81
20160;BME280;50187;50.492;12.134;2023-11-21T03:47:28;96942.38;;;19.76;39.81
20160;BME280;50187;50.492;12.134;2023-11-21T03:50:13;96953.00;;;19.77;39.70
20160;BME280;50187;50.492;12.134;2023-11-21T03:53:01;96945.75;;;19.69;39.75
20160;BME280;50187;50.492;12.134;2023-11-21T03:55:47;96941.88;;;19.72;39.81
20160;BME280;50187;50.492;12.134;2023-11-21T03:58:32;96948.97;;;19.73;39.77
20160;BME280;50187;50.492;12.134;2023-11-21T04:01:21;96948.59;;;19.76;39.70
20160;BME280;50187;50.492;12.134;2023-11-21T04:04:07;96955.88;;;19.76;39.81
20160;BME280;50187;50.492;12.134;2023-11-21T04:06:53;96943.22;;;19.76;39.42
20160;BME280;50187;50.492;12.134;2023-11-21T04:09:39;96954.38;;;19.73;39.53
20160;BME280;50187;50.492;12.134;2023-11-21T04:12:24;96957.25;;;19.71;39.76
20160;BME280;50187;50.492;12.134;2023-11-21T04:15:10;96957.25;;;19.71;39.88
20160;BME280;50187;50.492;12.134;2023-11-21T04:17:55;96960.75;;;19.72;39.85
20160;BME280;50187;50.492;12.134;2023-11-21T04:20:41;96956.03;;;19.74;39.53
20160;BME280;50187;50.492;12.134;2023-11-21T04:23:28;96956.88;;;19.74;39.77
20160;BME280;50187;50.492;12.134;2023-11-21T04:26:13;96960.75;;;19.72;39.76
20160;BME280;50187;50.492;12.134;2023-11-21T04:28:58;96969.22;;;19.69;39.92
20160;BME280;50187;50.492;12.134;2023-11-21T04:31:43;96975.09;;;19.72;39.66
20160;BME280;50187;50.492;12.134;2023-11-21T04:34:29;96974.91;;;19.74;39.62
20160;BME280;50187;50.492;12.134;2023-11-21T04:37:17;96965.97;;;19.73;39.67
20160;BME280;50187;50.492;12.134;2023-11-21T04:40:04;96965.16;;;19.73;39.58
20160;BME280;50187;50.492;12.134;2023-11-21T04:42:53;96968.22;;;19.70;39.95
20160;BME280;50187;50.492;12.134;2023-11-21T04:45:38;96976.31;;;19.70;39.61
20160;BME280;50187;50.492;12.134;2023-11-21T04:48:23;96979.00;;;19.70;39.82
20160;BME280;50187;50.492;12.134;2023-11-21T04:51:09;96970.41;;;19.66;39.90
20160;BME280;50187;50.492;12.134;2023-11-21T04:53:55;96981.34;;;19.73;39.55
20160;BME280;50187;50.492;12.134;2023-11-21T04:56:40;96978.81;;;19.71;39.81
20160;BME280;50187;50.492;12.134;2023-11-21T04:59:25;96986.22;;;19.69;39.61
20160;BME280;50187;50.492;12.134;2023-11-21T05:02:12;96988.28;;;19.67;39.84
20160;BME280;50187;50.492;12.134;2023-11-21T05:05:17;96983.50;;;19.78;39.60
20160;BME280;50187;50.492;12.134;2023-11-21T05:08:02;96983.00;;;19.82;39.62
20160;BME280;50187;50.492;12.134;2023-11-21T05:10:48;96994.13;;;19.87;39.33
20160;BME280;50187;50.492;12.134;2023-11-21T05:13:34;96989.72;;;19.95;39.36
20160;BME280;50187;50.492;12.134;2023-11-21T05:16:19;96985.28;;;20.02;39.48
20160;BME280;50187;50.492;12.134;2023-11-21T05:19:05;96995.56;;;20.06;39.13
20160;BME280;50187;50.492;12.134;2023-11-21T05:21:51;96995.88;;;20.12;39.03
20160;BME280;50187;50.492;12.134;2023-11-21T05:24:36;97000.09;;;20.14;39.00
20160;BME280;50187;50.492;12.134;2023-11-21T05:27:21;96994.69;;;20.14;39.03
20160;BME280;50187;50.492;12.134;2023-11-21T05:30:07;97008.84;;;20.16;39.02
20160;BME280;50187;50.492;12.134;2023-11-21T05:32:57;96995.34;;;20.16;38.99
20160;BME280;50187;50.492;12.134;2023-11-21T05:35:42;97004.78;;;20.20;39.00
20160;BME280;50187;50.492;12.134;2023-11-21T05:38:27;96991.63;;;20.17;38.92
20160;BME280;50187;50.492;12.134;2023-11-21T05:41:12;96993.50;;;20.17;38.86
20160;BME280;50187;50.492;12.134;2023-11-21T05:43:58;97014.41;;;20.15;39.11
20160;BME280;50187;50.492;12.134;2023-11-21T05:46:44;97002.97;;;20.13;39.24
20160;BME280;50187;50.492;12.134;2023-11-21T05:49:30;97010.22;;;20.12;39.21
20160;BME280;50187;50.492;12.134;2023-11-21T05:52:16;97015.97;;;20.09;39.19
20160;BME280;50187;50.492;12.134;2023-11-21T05:55:01;97013.63;;;20.06;39.04
20160;BME280;50187;50.492;12.134;2023-11-21T05:57:46;97021.91;;;20.04;39.01
20160;BME280;50187;50.492;12.134;2023-11-21T06:00:32;97020.22;;;20.03;39.17
20160;BME280;50187;50.492;12.134;2023-11-21T06:03:18;97027.66;;;20.01;39.09
20160;BME280;50187;50.492;12.134;2023-11-21T06:06:04;97021.75;;;19.98;39.42
20160;BME280;50187;50.492;12.134;2023-11-21T06:08:50;97032.53;;;19.98;39.21
20160;BME280;50187;50.492;12.134;2023-11-21T06:11:35;97035.44;;;19.96;39.45
20160;BME280;50187;50.492;12.134;2023-11-21T06:14:20;97032.06;;;19.94;39.46
20160;BME280;50187;50.492;12.134;2023-11-21T06:17:07;97038.84;;;19.90;39.22
20160;BME280;50187;50.492;12.134;2023-11-21T06:19:52;97035.97;;;19.92;39.52
20160;BME280;50187;50.492;12.134;2023-11-21T06:22:38;97044.41;;;19.88;39.30
20160;BME280;50187;50.492;12.134;2023-11-21T06:25:24;97047.09;;;19.88;39.45
20160;BME280;50187;50.492;12.134;2023-11-21T06:28:09;97049.13;;;19.86;39.54
20160;BME280;50187;50.492;12.134;2023-11-21T06:30:55;97056.56;;;19.84;39.67
20160;BME280;50187;50.492;12.134;2023-11-21T06:33:40;97058.41;;;19.84;39.54
20160;BME280;50187;50.492;12.134;2023-11-21T06:36:26;97056.22;;;19.87;39.39
20160;BME280;50187;50.492;12.134;2023-11-21T06:39:11;97059.91;;;19.86;39.43
20160;BME280;50187;50.492;12.134;2023-11-21T06:41:56;97059.75;;;19.88;39.52
20160;BME280;50187;50.492;12.134;2023-11-21T06:44:42;97054.69;;;19.85;39.31
20160;BME280;50187;50.492;12.134;2023-11-21T06:47:27;97054.16;;;19.89;39.55
20160;BME280;50187;50.492;12.134;2023-11-21T06:50:15;97065.66;;;19.92;39.20
20160;BME280;50187;50.492;12.134;2023-11-21T06:53:00;97067.34;;;19.93;39.57
20160;BME280;50187;50.492;12.134;2023-11-21T06:55:49;97071.03;;;19.92;39.38
20160;BME280;50187;50.492;12.134;2023-11-21T06:58:34;97074.41;;;19.85;39.48
20160;BME280;50187;50.492;12.134;2023-11-21T07:01:19;97078.28;;;19.91;39.26
20160;BME280;50187;50.492;12.134;2023-11-21T07:04:05;97086.22;;;19.93;39.29
20160;BME280;50187;50.492;12.134;2023-11-21T07:06:53;97086.38;;;19.91;39.25
20160;BME280;50187;50.492;12.134;2023-11-21T07:09:38;97087.41;;;19.90;39.38
20160;BME280;50187;50.492;12.134;2023-11-21T07:12:24;97089.94;;;19.92;39.27
20160;BME280;50187;50.492;12.134;2023-11-21T07:15:10;97086.88;;;19.95;39.19
20160;BME280;50187;50.492;12.134;2023-11-21T07:17:55;97087.91;;;19.94;39.21
20160;BME280;50187;50.492;12.134;2023-11-21T07:20:41;97094.16;;;19.94;39.31
20160;BME280;50187;50.492;12.134;2023-11-21T07:23:26;97098.88;;;19.92;39.22
20160;BME280;50187;50.492;12.134;2023-11-21T07:26:11;97104.78;;;19.96;39.20
20160;BME280;50187;50.492;12.134;2023-11-21T07:28:57;97104.78;;;19.96;39.17
20160;BME280;50187;50.492;12.134;2023-11-21T07:31:42;97109.16;;;19.97;39.13
20160;BME280;50187;50.492;12.134;2023-11-21T07:34:27;97127.03;;;19.98;39.15
20160;BME280;50187;50.492;12.134;2023-11-21T07:37:12;97117.28;;;19.97;39.11
20160;BME280;50187;50.492;12.134;2023-11-21T07:39:58;97121.63;;;19.98;39.18
20160;BME280;50187;50.492;12.134;2023-11-21T07:42:43;97126.03;;;19.99;39.19
20160;BME280;50187;50.492;12.134;2023-11-21T07:45:29;97132.25;;;19.99;39.18
20160;BME280;50187;50.492;12.134;2023-11-21T07:48:14;97128.72;;;19.99;39.15
20160;BME280;50187;50.492;12.134;2023-11-21T07:51:01;97126.69;;;20.01;39.08
20160;BME280;50187;50.492;12.134;2023-11-21T07:53:47;97135.81;;;20.00;39.43
20160;BME280;50187;50.492;12.134;2023-11-21T07:56:31;97129.72;;;19.98;39.31
20160;BME280;50187;50.492;12.134;2023-11-21T07:59:17;97133.94;;;20.00;39.17
20160;BME280;50187;50.492;12.134;2023-11-21T08:02:03;97140.03;;;20.02;39.40
20160;BME280;50187;50.492;12.134;2023-11-21T08:04:48;97149.97;;;20.02;39.14
20160;BME280;50187;50.492;12.134;2023-11-21T08:07:35;97145.56;;;20.01;39.15
20160;BME280;50187;50.492;12.134;2023-11-21T08:10:20;97155.53;;;20.00;39.38
20160;BME280;50187;50.492;12.134;2023-11-21T08:13:07;97151.66;;;20.03;39.34
20160;BME280;50187;50.492;12.134;2023-11-21T08:15:54;97149.13;;;20.01;39.20
20160;BME280;50187;50.492;12.134;2023-11-21T08:18:39;97146.59;;;20.08;39.17
20160;BME280;50187;50.492;12.134;2023-11-21T08:21:26;97149.13;;;20.10;39.15
20160;BME280;50187;50.492;12.134;2023-11-21T08:24:14;97142.88;;;20.09;39.12
20160;BME280;50187;50.492;12.134;2023-11-21T08:26:59;97155.69;;;20.15;39.05
20160;BME280;50187;50.492;12.134;2023-11-21T08:29:44;97170.03;;;20.16;39.12
20160;BME280;50187;50.492;12.134;2023-11-21T08:32:30;97157.19;;;20.18;38.94
20160;BME280;50187;50.492;12.134;2023-11-21T08:35:18;97160.91;;;20.17;39.06
20160;BME280;50187;50.492;12.134;2023-11-21T08:38:04;97158.88;;;20.19;38.75
20160;BME280;50187;50.492;12.134;2023-11-21T08:40:49;97154.66;;;20.16;38.95
20160;BME280;50187;50.492;12.134;2023-11-21T08:43:35;97154.66;;;20.16;39.04
20160;BME280;50187;50.492;12.134;2023-11-21T08:46:20;97160.91;;;20.17;39.17
20160;BME280;50187;50.492;12.134;2023-11-21T08:49:06;97161.75;;;20.09;39.05
20160;BME280;50187;50.492;12.134;2023-11-21T08:51:51;97162.28;;;20.04;39.29
20160;BME280;50187;50.492;12.134;2023-11-21T08:54:37;97165.16;;;20.03;39.18
20160;BME280;50187;50.492;12.134;2023-11-21T08:57:23;97165.50;;;20.00;39.44
20160;BME280;50187;50.492;12.134;2023-11-21T09:00:08;97178.16;;;19.99;39.45
20160;BME280;50187;50.492;12.134;2023-11-21T09:02:57;97174.63;;;19.99;39.18
20160;BME280;50187;50.492;12.134;2023-11-21T09:05:43;97176.47;;;19.98;39.26
20160;BME280;50187;50.492;12.134;2023-11-21T09:08:30;97177.66;;;19.96;39.58
20160;BME280;50187;50.492;12.134;2023-11-21T09:11:15;97173.44;;;19.93;39.31
20160;BME280;50187;50.492;12.134;2023-11-21T09:14:01;97178.66;;;19.95;39.67
20160;BME280;50187;50.492;12.134;2023-11-21T09:16:47;97172.59;;;19.93;39.83
20160;BME280;50187;50.492;12.134;2023-11-21T09:19:32;97185.59;;;19.97;39.84
20160;BME280;50187;50.492;12.134;2023-11-21T09:22:17;97187.44;;;19.97;40.00
20160;BME280;50187;50.492;12.134;2023-11-21T09:25:03;97196.22;;;19.99;39.48
20160;BME280;50187;50.492;12.134;2023-11-21T09:27:52;97182.38;;;19.94;39.52
20160;BME280;50187;50.492;12.134;2023-11-21T09:30:37;97192.16;;;19.95;39.58
20160;BME280;50187;50.492;12.134;2023-11-21T09:33:23;97199.25;;;19.96;39.55
20160;BME280;50187;50.492;12.134;2023-11-21T09:36:13;97216.09;;;19.98;39.59
20160;BME280;50187;50.492;12.134;2023-11-21T09:39:00;97199.56;;;20.01;39.84
20160;BME280;50187;50.492;12.134;2023-11-21T09:41:52;97210.53;;;19.99;39.51
20160;BME280;50187;50.492;12.134;2023-11-21T09:44:48;97200.94;;;19.97;39.59
20160;BME280;50187;50.492;12.134;2023-11-21T09:47:38;97209.72;;;19.99;39.72
20160;BME280;50187;50.492;12.134;2023-11-21T09:50:24;97217.28;;;19.95;39.75
20160;BME280;50187;50.492;12.134;2023-11-21T09:53:19;97216.81;;;20.00;39.96
20160;BME280;50187;50.492;12.134;2023-11-21T09:56:09;97211.41;;;20.00;39.93
20160;BME280;50187;50.492;12.134;2023-11-21T09:58:55;97219.31;;;20.01;40.10
20160;BME280;50187;50.492;12.134;2023-11-21T10:01:42;97213.25;;;19.99;40.30
20160;BME280;50187;50.492;12.134;2023-11-21T10:04:28;97214.09;;;20.00;40.48
20160;BME280;50187;50.492;12.134;2023-11-21T10:07:16;97213.41;;;19.98;40.16
20160;BME280;50187;50.492;12.134;2023-11-21T10:10:03;97214.75;;;19.94;40.13
20160;BME280;50187;50.492;12.134;2023-11-21T10:12:51;97212.75;;;19.96;39.76
20160;BME280;50187;50.492;12.134;2023-11-21T10:15:41;97209.72;;;19.90;40.21
20160;BME280;50187;50.492;12.134;2023-11-21T10:18:29;97207.69;;;19.93;40.17
20160;BME280;50187;50.492;12.134;2023-11-21T10:21:14;97213.25;;;19.91;39.93
20160;BME280;50187;50.492;12.134;2023-11-21T10:24:01;97213.75;;;19.86;40.01
20160;BME280;50187;50.492;12.134;2023-11-21T10:26:46;97207.69;;;19.84;40.14
20160;BME280;50187;50.492;12.134;2023-11-21T10:29:39;97211.75;;;19.80;40.14
20160;BME280;50187;50.492;12.134;2023-11-21T10:32:28;97217.81;;;19.82;39.87
20160;BME280;50187;50.492;12.134;2023-11-21T10:35:15;97213.59;;;19.80;40.21
20160;BME280;50187;50.492;12.134;2023-11-21T10:38:01;97217.28;;;19.79;40.21
20160;BME280;50187;50.492;12.134;2023-11-21T10:40:46;97219.13;;;19.78;40.16
20160;BME280;50187;50.492;12.134;2023-11-21T10:43:32;97220.84;;;19.79;39.98
20160;BME280;50187;50.492;12.134;2023-11-21T10:46:20;97215.44;;;19.79;39.96
20160;BME280;50187;50.492;12.134;2023-11-21T10:49:07;97220.84;;;19.79;39.99
20160;BME280;50187;50.492;12.134;2023-11-21T10:51:53;97214.59;;;19.79;39.92
20160;BME280;50187;50.492;12.134;2023-11-21T10:54:38;97222.53;;;19.80;39.87
20160;BME280;50187;50.492;12.134;2023-11-21T10:57:23;97221.69;;;19.80;40.17
20160;BME280;50187;50.492;12.134;2023-11-21T11:00:09;97231.47;;;19.81;40.08
20160;BME280;50187;50.492;12.134;2023-11-21T11:02:58;97227.59;;;19.83;40.12
20160;BME280;50187;50.492;12.134;2023-11-21T11:05:44;97228.25;;;19.85;39.81
20160;BME280;50187;50.492;12.134;2023-11-21T11:08:38;97233.66;;;19.85;40.03
20160;BME280;50187;50.492;12.134;2023-11-21T11:11:25;97233.34;;;19.88;39.88
20160;BME280;50187;50.492;12.134;2023-11-21T11:14:11;97236.69;;;19.90;39.84
20160;BME280;50187;50.492;12.134;2023-11-21T11:16:58;97235.69;;;19.92;39.72
20160;BME280;50187;50.492;12.134;2023-11-21T11:19:44;97227.59;;;19.92;40.00
20160;BME280;50187;50.492;12.134;2023-11-21T11:22:37;97229.44;;;19.91;39.83
20160;BME280;50187;50.492;12.134;2023-11-21T11:28:57;97231.31;;;19.90;39.97
20160;BME280;50187;50.492;12.134;2023-11-21T11:32:02;97229.59;;;19.89;40.01
20160;BME280;50187;50.492;12.134;2023-11-21T11:35:01;97234.19;;;19.89;39.88
20160;BME280;50187;50.492;12.134;2023-11-21T11:37:49;97236.88;;;19.89;40.05
20160;BME280;50187;50.492;12.134;2023-11-21T11:41:01;97239.91;;;19.86;40.06
20160;BME280;50187;50.492;12.134;2023-11-21T11:43:48;97245.50;;;19.84;40.03
20160;BME280;50187;50.492;12.134;2023-11-21T11:46:44;97238.22;;;19.85;39.94
20160;BME280;50187;50.492;12.134;2023-11-21T11:49:32;97230.97;;;19.85;39.94
20160;BME280;50187;50.492;12.134;2023-11-21T11:52:40;97245.50;;;19.84;39.80
20160;BME280;50187;50.492;12.134;2023-11-21T11:55:27;97245.66;;;19.83;39.79
20160;BME280;50187;50.492;12.134;2023-11-21T11:58:16;97260.00;;;19.83;39.67
20160;BME280;50187;50.492;12.134;2023-11-21T12:01:06;97253.06;;;19.81;39.89
20160;BME280;50187;50.492;12.134;2023-11-21T12:06:56;97259.31;;;19.81;40.16
20160;BME280;50187;50.492;12.134;2023-11-21T12:09:44;97261.16;;;19.81;40.04
20160;BME280;50187;50.492;12.134;2023-11-21T12:12:31;97263.03;;;19.80;40.10
20160;BME280;50187;50.492;12.134;2023-11-21T12:15:18;97273.81;;;19.80;39.90
20160;BME280;50187;50.492;12.134;2023-11-21T12:18:04;97272.97;;;19.80;39.89
20160;BME280;50187;50.492;12.134;2023-11-21T12:20:50;97274.81;;;19.79;39.96
20160;BME280;50187;50.492;12.134;2023-11-21T12:23:36;97284.63;;;19.80;40.06
20160;BME280;50187;50.492;12.134;2023-11-21T12:26:23;97284.63;;;19.80;39.91
20160;BME280;50187;50.492;12.134;2023-11-21T12:29:09;97286.31;;;19.81;39.84
20160;BME280;50187;50.492;12.134;2023-11-21T12:31:56;97290.00;;;19.80;40.10
20160;BME280;50187;50.492;12.134;2023-11-21T12:34:41;97286.81;;;19.85;41.15
20160;BME280;50187;50.492;12.134;2023-11-21T12:37:27;97290.34;;;19.94;41.62
20160;BME280;50187;50.492;12.134;2023-11-21T12:40:13;97285.47;;;19.97;41.52
20160;BME280;50187;50.492;12.134;2023-11-21T12:43:00;97290.69;;;19.99;41.30
20160;BME280;50187;50.492;12.134;2023-11-21T12:45:50;97294.91;;;20.01;41.45
20160;BME280;50187;50.492;12.134;2023-11-21T12:48:38;97296.44;;;20.04;41.32
20160;BME280;50187;50.492;12.134;2023-11-21T12:51:30;97298.63;;;20.08;41.34
20160;BME280;50187;50.492;12.134;2023-11-21T12:54:16;97296.41;;;20.12;41.13
20160;BME280;50187;50.492;12.134;2023-11-21T12:57:02;97291.53;;;20.16;41.35
20160;BME280;50187;50.492;12.134;2023-11-21T12:59:50;97293.06;;;20.18;41.33
20160;BME280;50187;50.492;12.134;2023-11-21T13:02:37;97304.53;;;20.20;41.31
20160;BME280;50187;50.492;12.134;2023-11-21T13:05:34;97301.50;;;20.23;41.09
20160;BME280;50187;50.492;12.134;2023-11-21T13:08:21;97308.56;;;20.24;41.48
20160;BME280;50187;50.492;12.134;2023-11-21T13:11:08;97299.47;;;20.25;41.17
20160;BME280;50187;50.492;12.134;2023-11-21T13:13:55;97311.44;;;20.23;41.22
20160;BME280;50187;50.492;12.134;2023-11-21T13:16:41;97304.03;;;20.25;41.44
20160;BME280;50187;50.492;12.134;2023-11-21T13:19:31;97323.09;;;20.32;41.37
20160;BME280;50187;50.492;12.134;2023-11-21T13:22:17;97309.22;;;20.51;41.01
20160;BME280;50187;50.492;12.134;2023-11-21T13:25:03;97310.38;;;20.65;40.95
20160;BME280;50187;50.492;12.134;2023-11-21T13:27:52;97312.91;;;20.83;40.78
20160;BME280;50187;50.492;12.134;2023-11-21T13:30:37;97313.38;;;20.95;40.82
20160;BME280;50187;50.492;12.134;2023-11-21T13:33:25;97309.09;;;21.09;40.34
20160;BME280;50187;50.492;12.134;2023-11-21T13:36:12;97308.56;;;21.14;40.64
20160;BME280;50187;50.492;12.134;2023-11-21T13:38:59;97320.53;;;21.27;40.58
20160;BME280;50187;50.492;12.134;2023-11-21T13:41:49;97335.03;;;21.35;40.47
20160;BME280;50187;50.492;12.134;2023-11-21T13:44:40;97329.94;;;21.40;40.13
20160;BME280;50187;50.492;12.134;2023-11-21T13:47:29;97328.41;;;21.45;39.84
20160;BME280;50187;50.492;12.134;2023-11-21T13:50:17;97329.22;;;21.46;39.03
20160;BME280;50187;50.492;12.134;2023-11-21T13:53:09;97338.03;;;21.48;38.97
20160;BME280;50187;50.492;12.134;2023-11-21T13:56:07;97337.22;;;21.39;38.78
20160;BME280;50187;50.492;12.134;2023-11-21T13:58:53;97349.22;;;21.45;38.41
20160;BME280;50187;50.492;12.134;2023-11-21T14:01:40;97337.06;;;21.41;38.17
20160;BME280;50187;50.492;12.134;2023-11-21T14:04:38;97345.47;;;21.46;37.85
20160;BME280;50187;50.492;12.134;2023-11-21T14:07:45;97347.50;;;21.44;37.68
20160;BME280;50187;50.492;12.134;2023-11-21T14:10:33;97350.53;;;21.49;37.58
20160;BME280;50187;50.492;12.134;2023-11-21T14:13:29;97354.91;;;21.50;37.28
20160;BME280;50187;50.492;12.134;2023-11-21T14:16:15;97362.38;;;21.48;37.30
20160;BME280;50187;50.492;12.134;2023-11-21T14:19:01;97363.91;;;21.51;37.30
20160;BME280;50187;50.492;12.134;2023-11-21T14:21:59;97363.56;;;21.54;36.72
20160;BME280;50187;50.492;12.134;2023-11-21T14:24:44;97366.59;;;21.51;36.91
20160;BME280;50187;50.492;12.134;2023-11-21T14:27:32;97366.75;;;21.57;37.13
20160;BME280;50187;50.492;12.134;2023-11-21T14:30:20;97376.03;;;21.63;36.84
20160;BME280;50187;50.492;12.134;2023-11-21T14:33:07;97376.91;;;21.64;36.85
20160;BME280;50187;50.492;12.134;2023-11-21T14:35:53;97381.97;;;21.58;36.71
20160;BME280;50187;50.492;12.134;2023-11-21T14:38:38;97388.19;;;21.67;36.68